createdAt,value
2023-03-31T00:01:57.815Z,14.94
2023-03-31T00:09:01.988Z,14.84
2023-03-31T00:16:06.483Z,14.96
2023-03-31T00:23:10.835Z,15.00
2023-03-31T00:30:13.520Z,15.09
2023-03-31T00:37:15.978Z,14.91
2023-03-31T00:44:25.348Z,14.96
2023-03-31T00:51:28.696Z,14.86
2023-03-31T00:58:33.177Z,15.01
2023-03-31T01:05:56.704Z,14.81
2023-03-31T01:12:58.272Z,14.87
2023-03-31T01:20:36.471Z,14.78
2023-03-31T01:27:54.104Z,14.57
2023-03-31T01:35:01.720Z,14.48
2023-03-31T01:42:21.270Z,14.30
2023-03-31T01:49:58.210Z,14.31
2023-03-31T01:57:08.712Z,14.38
2023-03-31T02:04:13.465Z,14.29
2023-03-31T02:11:15.390Z,14.16
2023-03-31T02:18:18.624Z,14.35
2023-03-31T02:25:23.198Z,14.31
2023-03-31T02:32:39.325Z,14.25
2023-03-31T02:39:41.960Z,14.40
2023-03-31T02:46:44.224Z,14.30
2023-03-31T02:54:20.475Z,14.53
2023-03-31T03:01:34.990Z,14.52
2023-03-31T03:08:55.334Z,14.40
2023-03-31T03:16:13.846Z,14.51
2023-03-31T03:23:16.627Z,14.28
2023-03-31T03:30:18.147Z,14.57
2023-03-31T03:37:19.745Z,14.29
2023-03-31T03:44:21.276Z,14.24
2023-03-31T03:51:23.036Z,14.32
2023-03-31T03:58:24.608Z,14.45
2023-03-31T04:05:26.153Z,14.34
2023-03-31T04:12:27.675Z,14.23
2023-03-31T04:19:29.221Z,14.33
2023-03-31T04:26:39.058Z,14.45
2023-03-31T04:33:40.759Z,14.30
2023-03-31T04:40:42.320Z,14.35
2023-03-31T04:47:43.939Z,14.36
2023-03-31T04:54:45.647Z,14.22
2023-03-31T05:01:48.039Z,14.35
2023-03-31T05:08:49.601Z,14.21
2023-03-31T05:15:51.689Z,14.24
2023-03-31T05:22:53.299Z,14.24
2023-03-31T05:29:54.799Z,14.46
2023-03-31T05:36:56.341Z,14.25
2023-03-31T05:43:57.994Z,14.26
2023-03-31T05:50:59.795Z,14.25
2023-03-31T05:58:01.324Z,14.33
2023-03-31T06:05:03.538Z,14.42
2023-03-31T06:12:05.556Z,14.67
2023-03-31T06:19:07.225Z,14.56
2023-03-31T06:26:12.866Z,14.85
2023-03-31T06:33:14.611Z,14.78
2023-03-31T06:40:16.516Z,14.69
2023-03-31T06:47:18.292Z,14.88
2023-03-31T06:54:19.932Z,15.07
2023-03-31T07:01:21.591Z,15.27
2023-03-31T07:08:23.742Z,15.48
2023-03-31T07:15:28.180Z,15.66
2023-03-31T07:22:30.113Z,15.74
2023-03-31T07:29:31.746Z,16.36
2023-03-31T07:36:33.337Z,16.07
2023-03-31T07:43:34.935Z,16.21
2023-03-31T07:50:36.629Z,16.24
2023-03-31T07:57:42.309Z,16.68
2023-03-31T08:04:44.774Z,17.29
2023-03-31T08:11:47.654Z,17.52
2023-03-31T08:18:49.783Z,17.74
2023-03-31T08:25:51.887Z,17.24
2023-03-31T08:32:53.530Z,17.77
2023-03-31T08:39:56.058Z,17.91
2023-03-31T08:46:58.602Z,18.06
2023-03-31T08:54:05.611Z,18.58
2023-03-31T09:01:14.147Z,18.65
2023-03-31T09:08:38.586Z,18.25
2023-03-31T09:15:46.356Z,18.47
2023-03-31T09:22:50.276Z,18.94
2023-03-31T09:30:09.380Z,18.66
2023-03-31T09:37:11.549Z,18.97
2023-03-31T09:44:21.054Z,19.22
2023-03-31T09:51:26.116Z,19.46
2023-03-31T09:58:28.446Z,19.20
2023-03-31T10:05:43.819Z,18.81
2023-03-31T10:12:50.978Z,18.91
2023-03-31T10:19:53.501Z,18.54
2023-03-31T10:26:55.801Z,18.35
2023-03-31T10:33:58.525Z,18.63
2023-03-31T10:41:00.190Z,18.61
2023-03-31T10:48:02.016Z,18.43
2023-03-31T10:55:03.830Z,18.52
2023-03-31T11:02:29.884Z,18.71
2023-03-31T11:09:50.218Z,18.86
2023-03-31T11:17:06.929Z,18.23
2023-03-31T11:24:32.792Z,18.34
2023-03-31T11:31:50.702Z,18.71
2023-03-31T11:39:04.300Z,19.28
2023-03-31T11:46:21.420Z,19.01
2023-03-31T11:53:43.195Z,19.19
2023-03-31T12:00:48.258Z,19.48
2023-03-31T12:08:22.149Z,19.43
2023-03-31T12:15:29.971Z,18.88
2023-03-31T12:22:43.863Z,18.49
2023-03-31T12:29:48.202Z,18.33
2023-03-31T12:36:55.287Z,18.89
2023-03-31T12:44:02.413Z,18.71
2023-03-31T12:51:20.547Z,18.61
2023-03-31T12:58:26.485Z,18.20
2023-03-31T13:05:37.513Z,17.73
2023-03-31T13:12:39.155Z,17.76
2023-03-31T13:19:41.259Z,17.90
2023-03-31T13:26:46.699Z,17.50
2023-03-31T13:33:58.134Z,17.25
2023-03-31T13:41:41.472Z,16.98
2023-03-31T13:49:19.842Z,16.36
2023-03-31T13:56:48.718Z,15.70
2023-03-31T14:04:14.381Z,15.68
2023-03-31T14:11:36.193Z,15.39
2023-03-31T14:18:38.595Z,15.40
2023-03-31T14:26:08.293Z,15.14
2023-03-31T14:33:21.908Z,14.89
2023-03-31T14:40:23.738Z,14.94
2023-03-31T14:47:28.501Z,14.97
2023-03-31T14:54:34.185Z,14.95
2023-03-31T15:01:39.192Z,15.00
2023-03-31T15:08:40.825Z,15.00
2023-03-31T15:15:45.510Z,14.99
2023-03-31T15:22:47.158Z,14.93
2023-03-31T15:29:49.946Z,14.90
2023-03-31T15:36:54.203Z,14.97
2023-03-31T15:44:19.631Z,15.07
2023-03-31T15:51:27.868Z,14.98
2023-03-31T15:58:53.105Z,15.07
2023-03-31T16:05:55.655Z,14.91
2023-03-31T16:12:59.301Z,14.89
2023-03-31T16:20:22.972Z,15.04
2023-03-31T16:27:24.606Z,14.95
2023-03-31T16:34:26.410Z,14.99
2023-03-31T16:41:28.510Z,14.94
2023-03-31T16:48:31.629Z,14.79
2023-03-31T16:55:33.249Z,14.87
2023-03-31T17:02:34.996Z,14.74
2023-03-31T17:09:36.665Z,14.71
2023-03-31T17:16:47.457Z,14.90
2023-03-31T17:23:50.277Z,14.59
2023-03-31T17:30:52.300Z,14.67
2023-03-31T17:37:55.170Z,14.81
2023-03-31T17:44:58.415Z,14.66
2023-03-31T17:52:00.378Z,14.67
2023-03-31T17:59:02.280Z,14.70
2023-03-31T18:06:06.507Z,14.77
2023-03-31T18:13:08.458Z,14.74
2023-03-31T18:20:10.636Z,14.64
2023-03-31T18:27:12.464Z,14.72
2023-03-31T18:34:16.064Z,14.77
2023-03-31T18:41:17.743Z,14.76
2023-03-31T18:48:21.792Z,14.64
2023-03-31T18:55:23.476Z,14.76
2023-03-31T19:02:25.651Z,14.64
2023-03-31T19:09:27.888Z,14.65
2023-03-31T19:16:29.620Z,14.66
2023-03-31T19:23:31.649Z,14.69
2023-03-31T19:30:33.206Z,14.65
2023-03-31T19:37:34.813Z,14.69
2023-03-31T19:44:36.428Z,14.72
2023-03-31T19:51:38.035Z,14.64
2023-03-31T19:58:39.816Z,14.63
2023-03-31T20:05:41.487Z,14.54
2023-03-31T20:12:43.349Z,14.66
2023-03-31T20:19:45.103Z,14.52
2023-03-31T20:26:46.817Z,14.61
2023-03-31T20:33:48.390Z,14.61
2023-03-31T20:40:49.980Z,14.63
2023-03-31T20:47:52.287Z,14.47
2023-03-31T20:54:53.896Z,14.56
2023-03-31T21:01:55.547Z,14.53
2023-03-31T21:08:59.960Z,14.64
2023-03-31T21:16:01.907Z,14.66
2023-03-31T21:23:03.522Z,14.80
2023-03-31T21:30:05.728Z,14.54
2023-03-31T21:37:08.741Z,14.53
2023-03-31T21:44:10.397Z,14.56
2023-03-31T21:51:11.955Z,14.43
2023-03-31T21:58:13.801Z,14.25
2023-03-31T22:05:15.797Z,14.25
2023-03-31T22:12:17.389Z,14.37
2023-03-31T22:19:19.627Z,14.34
2023-03-31T22:26:21.813Z,14.33
2023-03-31T22:33:23.406Z,14.29
2023-03-31T22:40:25.020Z,14.38
2023-03-31T22:47:27.061Z,14.36
2023-03-31T22:54:28.707Z,14.20
2023-03-31T23:01:30.531Z,14.21
2023-03-31T23:08:33.207Z,14.19
2023-03-31T23:15:35.463Z,14.19
2023-03-31T23:22:37.375Z,14.06
2023-03-31T23:29:38.994Z,14.10
2023-03-31T23:36:40.657Z,14.06
2023-03-31T23:43:42.434Z,14.00
2023-03-31T23:50:44.171Z,14.03
2023-03-31T23:57:46.416Z,14.11
